Time;durP1;ratioP1;P1;durP2;ratioP2;P2;SDS_P1;SDS_P2;PMS_P1;PMS_P2;Temp;Humidity;BMP_temperature;BMP_pressure;BME280_temperature;BME280_humidity;BME280_pressure;Samples;Min_cycle;Max_cycle;Signal;HPM_P1;HPM_P2
2023/06/26 00:00:54;;;;;;;4.30;3.90;;;15.30;99.90;;;;;;5029018;28;20040;-63
2023/06/26 00:03:20;;;;;;;4.18;3.75;;;15.20;99.90;;;;;;5025954;28;20796;-64
2023/06/26 00:05:47;;;;;;;3.63;3.28;;;15.20;99.90;;;;;;5027201;28;20041;-63
2023/06/26 00:08:14;;;;;;;5.15;4.60;;;15.20;99.90;;;;;;5026816;28;20045;-63
2023/06/26 00:10:41;;;;;;;5.65;4.40;;;15.20;99.90;;;;;;5022800;28;20571;-66
2023/06/26 00:13:12;;;;;;;4.07;3.75;;;15.20;99.90;;;;;;5021477;28;20045;-64
2023/06/26 00:15:39;;;;;;;3.97;3.65;;;15.10;99.90;;;;;;5025632;28;20124;-62
2023/06/26 00:18:06;;;;;;;5.43;4.43;;;15.10;99.90;;;;;;5025980;28;20064;-63
2023/06/26 00:20:34;;;;;;;5.03;4.63;;;15.10;99.90;;;;;;5024814;28;20041;-62
2023/06/26 00:23:01;;;;;;;6.55;4.35;;;15.10;99.90;;;;;;5028402;28;20483;-65
2023/06/26 00:25:28;;;;;;;4.72;4.25;;;15.10;99.90;;;;;;5023298;28;20045;-67
2023/06/26 00:27:55;;;;;;;9.60;5.20;;;15.10;99.90;;;;;;5028333;28;20100;-62
2023/06/26 00:30:21;;;;;;;6.70;5.60;;;15.10;99.90;;;;;;5026118;28;20104;-64
2023/06/26 00:32:48;;;;;;;6.63;5.35;;;15.10;99.90;;;;;;5027663;28;20458;-63
2023/06/26 00:35:15;;;;;;;6.03;5.43;;;15.10;99.90;;;;;;5026340;28;20053;-64
2023/06/26 00:37:44;;;;;;;4.95;4.22;;;15.10;99.90;;;;;;5023815;28;20046;-63
2023/06/26 00:40:12;;;;;;;5.35;4.82;;;15.10;99.90;;;;;;5025567;28;20239;-63
2023/06/26 00:42:39;;;;;;;6.43;4.55;;;15.00;99.90;;;;;;5022908;28;20037;-62
2023/06/26 00:45:06;;;;;;;5.30;4.85;;;15.00;99.90;;;;;;5023446;28;20080;-65
2023/06/26 00:47:33;;;;;;;5.22;4.72;;;15.00;99.90;;;;;;5016734;28;20080;-62
2023/06/26 00:50:00;;;;;;;5.07;4.63;;;15.00;99.90;;;;;;5023500;28;20653;-62
2023/06/26 00:52:27;;;;;;;5.28;4.78;;;15.00;99.90;;;;;;5025649;28;20065;-63
2023/06/26 00:54:56;;;;;;;5.65;5.15;;;14.90;99.90;;;;;;5024289;28;20157;-64
2023/06/26 00:57:23;;;;;;;5.60;4.93;;;14.90;99.90;;;;;;5024342;28;20554;-65
2023/06/26 00:59:50;;;;;;;6.28;5.68;;;14.90;99.90;;;;;;5023236;28;20049;-63
2023/06/26 01:02:20;;;;;;;7.03;5.53;;;14.90;99.90;;;;;;5023059;28;20054;-63
2023/06/26 01:04:50;;;;;;;6.57;5.70;;;14.90;99.90;;;;;;5024622;28;20077;-63
2023/06/26 01:07:19;;;;;;;6.97;6.38;;;14.90;99.90;;;;;;5023663;28;20427;-63
2023/06/26 01:09:48;;;;;;;6.18;4.75;;;14.90;99.90;;;;;;5028605;28;20134;-63
2023/06/26 01:12:15;;;;;;;6.10;5.60;;;14.90;99.90;;;;;;5024731;28;20077;-64
2023/06/26 01:14:42;;;;;;;6.75;6.15;;;14.90;99.90;;;;;;5023753;28;20107;-65
2023/06/26 01:17:14;;;;;;;6.60;5.88;;;14.90;99.90;;;;;;5024628;28;20111;-64
2023/06/26 01:19:43;;;;;;;7.47;5.47;;;14.90;99.90;;;;;;5020959;28;20049;-62
2023/06/26 01:22:23;;;;;;;5.53;5.05;;;14.90;99.90;;;;;;5020630;28;20460;-62
2023/06/26 01:25:17;;;;;;;5.50;5.10;;;14.90;99.90;;;;;;5023390;28;20048;-63
2023/06/26 01:27:50;;;;;;;5.50;5.00;;;14.90;99.90;;;;;;5023340;28;20049;-64
2023/06/26 01:30:18;;;;;;;5.50;5.00;;;14.90;99.90;;;;;;5023221;28;20034;-63
2023/06/26 01:32:46;;;;;;;5.78;4.93;;;14.90;99.90;;;;;;5038414;28;21675;-64
2023/06/26 01:35:15;;;;;;;6.00;5.07;;;14.90;99.90;;;;;;5024216;28;20049;-63
2023/06/26 01:37:42;;;;;;;6.53;5.90;;;14.90;99.90;;;;;;5020889;28;20041;-65
2023/06/26 01:40:09;;;;;;;5.20;4.75;;;14.90;99.90;;;;;;5036533;28;20072;-63
2023/06/26 01:42:36;;;;;;;6.13;5.55;;;14.90;99.90;;;;;;5019010;28;20074;-64
2023/06/26 01:45:14;;;;;;;5.18;4.68;;;14.90;99.90;;;;;;5018661;28;20041;-68
2023/06/26 01:47:49;;;;;;;5.82;5.22;;;14.90;99.90;;;;;;5020643;28;20049;-62
2023/06/26 01:50:21;;;;;;;6.82;5.20;;;14.90;99.90;;;;;;5022770;28;20089;-64
2023/06/26 01:53:07;;;;;;;6.82;5.03;;;14.90;99.90;;;;;;5020803;28;20106;-63
2023/06/26 01:55:42;;;;;;;6.30;5.13;;;14.90;99.90;;;;;;5022695;28;20037;-64
2023/06/26 01:58:09;;;;;;;6.55;5.30;;;14.90;99.90;;;;;;5025704;28;20054;-63
2023/06/26 02:00:37;;;;;;;4.93;4.15;;;14.90;99.90;;;;;;5024052;28;20507;-63
2023/06/26 02:03:06;;;;;;;5.43;4.93;;;14.80;99.90;;;;;;5021183;28;20037;-63
2023/06/26 02:05:33;;;;;;;5.70;5.07;;;14.90;99.90;;;;;;5017528;28;20064;-63
2023/06/26 02:08:03;;;;;;;5.70;5.20;;;14.90;99.90;;;;;;5023072;28;20063;-63
2023/06/26 02:10:30;;;;;;;6.25;5.07;;;15.00;99.90;;;;;;5023101;28;20088;-65
2023/06/26 02:12:57;;;;;;;4.97;4.57;;;15.00;99.90;;;;;;5043402;28;20049;-62
2023/06/26 02:15:24;;;;;;;5.47;4.85;;;15.00;99.90;;;;;;5023479;28;20503;-63
2023/06/26 02:17:53;;;;;;;5.28;4.78;;;15.00;99.90;;;;;;5021326;28;20458;-62
2023/06/26 02:20:20;;;;;;;6.32;5.82;;;15.00;99.90;;;;;;5024263;28;20041;-64
2023/06/26 02:22:47;;;;;;;6.45;5.35;;;15.00;99.90;;;;;;5021473;28;20034;-62
2023/06/26 02:25:14;;;;;;;5.30;4.90;;;15.00;99.90;;;;;;5023292;28;20053;-62
2023/06/26 02:27:42;;;;;;;5.13;4.65;;;15.10;99.90;;;;;;5022916;28;20050;-63
2023/06/26 02:30:09;;;;;;;4.88;4.47;;;15.10;99.90;;;;;;5040866;28;20045;-65
2023/06/26 02:32:36;;;;;;;5.80;4.90;;;15.00;99.90;;;;;;5023409;28;20083;-62
2023/06/26 02:35:04;;;;;;;9.32;4.65;;;15.00;99.90;;;;;;5025653;28;20049;-63
2023/06/26 02:37:31;;;;;;;5.05;4.65;;;15.00;99.90;;;;;;5019756;28;20060;-63
2023/06/26 02:39:58;;;;;;;9.35;4.82;;;15.00;99.90;;;;;;5021613;28;20051;-63
2023/06/26 02:42:26;;;;;;;5.82;3.90;;;15.00;99.90;;;;;;5023355;28;20053;-67
2023/06/26 02:44:53;;;;;;;5.40;4.93;;;15.00;99.90;;;;;;5023047;28;20045;-63
2023/06/26 02:47:20;;;;;;;5.03;4.63;;;15.00;99.90;;;;;;5022768;28;20054;-63
2023/06/26 02:49:47;;;;;;;7.00;5.13;;;15.00;99.90;;;;;;5038873;28;20045;-64
2023/06/26 02:52:14;;;;;;;5.57;4.40;;;15.00;99.90;;;;;;5022402;28;20053;-62
2023/06/26 02:54:40;;;;;;;4.43;4.03;;;14.90;99.90;;;;;;5032767;28;20045;-63
2023/06/26 02:57:07;;;;;;;5.70;4.78;;;14.90;99.90;;;;;;5013318;28;20049;-63
2023/06/26 02:59:35;;;;;;;4.95;4.30;;;14.90;99.90;;;;;;5017613;28;20092;-67
2023/06/26 03:02:02;;;;;;;4.85;4.28;;;14.90;99.90;;;;;;5008014;28;20514;-64
2023/06/26 03:04:37;;;;;;;4.05;3.42;;;15.00;99.90;;;;;;5020414;28;20551;-63
2023/06/26 03:07:07;;;;;;;4.68;4.28;;;15.00;99.90;;;;;;5022420;28;20071;-64
2023/06/26 03:09:35;;;;;;;4.50;4.00;;;15.00;99.90;;;;;;5037277;28;20049;-63
2023/06/26 03:12:03;;;;;;;5.05;4.55;;;15.00;99.90;;;;;;5037769;28;20041;-62
2023/06/26 03:14:31;;;;;;;5.47;4.88;;;15.00;99.90;;;;;;5039404;28;20491;-63
2023/06/26 03:17:03;;;;;;;5.32;4.82;;;15.10;99.90;;;;;;5024163;28;20439;-63
2023/06/26 03:19:31;;;;;;;5.28;4.85;;;15.20;99.90;;;;;;5023014;28;20053;-62
2023/06/26 03:22:19;;;;;;;5.10;4.60;;;15.20;99.90;;;;;;5021616;28;20052;-62
2023/06/26 03:24:46;;;;;;;4.18;3.78;;;15.30;99.90;;;;;;5025439;28;20563;-64
2023/06/26 03:27:13;;;;;;;4.45;4.05;;;15.30;99.90;;;;;;5023011;28;20067;-64
2023/06/26 03:29:44;;;;;;;4.80;4.05;;;15.30;99.90;;;;;;5038842;28;20049;-63
2023/06/26 03:32:11;;;;;;;4.75;4.35;;;15.40;99.90;;;;;;5036159;28;20049;-63
2023/06/26 03:34:38;;;;;;;3.95;3.50;;;15.40;99.90;;;;;;5025070;28;20411;-63
2023/06/26 03:37:06;;;;;;;5.55;4.28;;;15.40;99.90;;;;;;5038713;28;20144;-65
2023/06/26 03:39:33;;;;;;;4.57;4.22;;;15.40;99.90;;;;;;5021610;28;20048;-62
2023/06/26 03:42:01;;;;;;;4.93;4.32;;;15.40;99.90;;;;;;5020558;28;20053;-64
2023/06/26 03:44:28;;;;;;;4.43;3.50;;;15.40;99.90;;;;;;5020886;28;20607;-62
2023/06/26 03:46:55;;;;;;;5.03;3.50;;;15.50;99.90;;;;;;5023303;28;20048;-64
2023/06/26 03:49:23;;;;;;;3.83;3.50;;;15.50;99.90;;;;;;5019929;28;20504;-62
2023/06/26 03:51:51;;;;;;;3.10;2.72;;;15.60;99.90;;;;;;5017913;28;20060;-62
2023/06/26 03:54:18;;;;;;;3.53;3.17;;;15.60;99.90;;;;;;5019796;28;20045;-63
2023/06/26 03:56:45;;;;;;;2.60;2.40;;;15.60;99.90;;;;;;5021278;28;20034;-62
2023/06/26 03:59:12;;;;;;;4.18;3.80;;;15.70;99.90;;;;;;5018969;28;20050;-63
2023/06/26 04:01:38;;;;;;;3.63;3.28;;;15.70;99.90;;;;;;5021190;28;20120;-63
2023/06/26 04:04:05;;;;;;;3.45;3.15;;;15.80;99.90;;;;;;5023672;28;20049;-65
2023/06/26 04:06:33;;;;;;;4.18;3.80;;;15.80;99.90;;;;;;5020694;28;20049;-63
2023/06/26 04:09:00;;;;;;;4.22;3.20;;;15.90;99.90;;;;;;5035767;28;20100;-64
2023/06/26 04:11:27;;;;;;;2.95;2.65;;;15.90;99.90;;;;;;5021345;28;20045;-67
2023/06/26 04:13:54;;;;;;;2.47;2.28;;;16.00;99.90;;;;;;5026916;28;20798;-62
2023/06/26 04:16:24;;;;;;;3.00;2.40;;;16.10;99.90;;;;;;5026868;28;20061;-62
2023/06/26 04:18:53;;;;;;;2.88;2.42;;;16.10;99.90;;;;;;5026602;28;20665;-64
2023/06/26 04:21:20;;;;;;;2.90;2.53;;;16.20;99.90;;;;;;5027118;28;20128;-62
2023/06/26 04:23:47;;;;;;;3.03;2.72;;;16.20;99.90;;;;;;5028319;28;20095;-64
2023/06/26 04:26:14;;;;;;;3.83;2.88;;;16.30;99.90;;;;;;5021850;28;20045;-63
2023/06/26 04:28:42;;;;;;;2.92;2.30;;;16.30;99.90;;;;;;5025632;28;20080;-62
2023/06/26 04:31:09;;;;;;;3.08;2.20;;;16.40;99.90;;;;;;5022333;28;20104;-67
2023/06/26 04:33:36;;;;;;;2.38;2.17;;;16.40;99.90;;;;;;5026332;28;20061;-66
2023/06/26 04:36:06;;;;;;;;;;;16.50;99.90;;;;;;5026817;28;20052;-62
2023/06/26 04:38:33;;;;;;;3.28;1.63;;;16.60;99.90;;;;;;5023709;28;21359;-65
2023/06/26 04:41:01;;;;;;;2.38;2.03;;;16.60;99.90;;;;;;5022507;28;20034;-62
2023/06/26 04:43:28;;;;;;;2.95;2.25;;;16.70;99.90;;;;;;5024821;28;20049;-65
2023/06/26 04:45:56;;;;;;;2.63;2.05;;;16.80;99.90;;;;;;5026953;28;20049;-64
2023/06/26 04:48:23;;;;;;;2.55;2.10;;;17.00;99.90;;;;;;5024395;28;20380;-63
2023/06/26 04:50:53;;;;;;;2.17;1.92;;;17.00;99.90;;;;;;5023913;28;20033;-62
2023/06/26 04:53:22;;;;;;;7.47;3.95;;;17.10;99.90;;;;;;5023215;28;20042;-67
2023/06/26 04:55:50;;;;;;;2.20;1.80;;;17.10;99.90;;;;;;5024482;28;20062;-63
2023/06/26 04:58:18;;;;;;;2.17;1.70;;;17.20;99.90;;;;;;5019933;28;20051;-65
2023/06/26 05:00:45;;;;;;;2.33;2.13;;;17.30;99.90;;;;;;5024354;28;20095;-62
2023/06/26 05:03:14;;;;;;;2.38;2.10;;;17.40;99.90;;;;;;5025190;28;20045;-63
2023/06/26 05:05:41;;;;;;;2.67;1.73;;;17.50;99.90;;;;;;5028531;28;20136;-64
2023/06/26 05:08:18;;;;;;;3.60;2.03;;;17.60;99.90;;;;;;5025977;28;20041;-64
2023/06/26 05:10:45;;;;;;;2.53;2.22;;;17.60;99.90;;;;;;5027659;28;20065;-62
2023/06/26 05:13:17;;;;;;;2.88;1.88;;;17.80;99.90;;;;;;5021512;28;20042;-65
2023/06/26 05:15:48;;;;;;;1.73;1.60;;;17.80;99.90;;;;;;5022289;28;20079;-63
2023/06/26 05:18:15;;;;;;;2.35;2.10;;;17.90;99.90;;;;;;5022176;28;20045;-62
2023/06/26 05:20:42;;;;;;;2.42;2.22;;;17.90;99.90;;;;;;5025483;28;20041;-62
2023/06/26 05:23:12;;;;;;;3.63;2.40;;;18.00;99.90;;;;;;5024624;28;20042;-64
2023/06/26 05:25:39;;;;;;;4.72;2.22;;;18.00;99.90;;;;;;5021828;28;20045;-63
2023/06/26 05:28:09;;;;;;;2.63;1.67;;;18.00;99.90;;;;;;5024686;28;20052;-64
2023/06/26 05:30:37;;;;;;;2.22;2.03;;;18.10;99.90;;;;;;5022414;28;20072;-63
2023/06/26 05:33:05;;;;;;;2.15;1.77;;;18.20;99.90;;;;;;5027268;28;20063;-63
2023/06/26 05:35:36;;;;;;;2.63;1.90;;;18.30;99.90;;;;;;5024781;28;20080;-63
2023/06/26 05:38:03;;;;;;;2.92;1.83;;;18.40;99.90;;;;;;5024329;28;20045;-65
2023/06/26 05:40:30;;;;;;;1.95;1.77;;;18.70;99.90;;;;;;5021340;28;20120;-65
2023/06/26 05:42:57;;;;;;;5.25;2.65;;;18.80;99.90;;;;;;5022784;28;20116;-62
2023/06/26 05:45:24;;;;;;;2.33;1.95;;;18.90;99.90;;;;;;5022836;28;20068;-67
2023/06/26 05:47:51;;;;;;;2.80;1.90;;;19.00;99.90;;;;;;5027601;28;20037;-67
2023/06/26 05:50:19;;;;;;;4.18;2.65;;;19.00;99.90;;;;;;5024602;28;20042;-62
2023/06/26 05:52:47;;;;;;;2.85;2.42;;;19.10;99.90;;;;;;5027633;28;20132;-63
2023/06/26 05:55:14;;;;;;;3.15;2.20;;;19.10;99.90;;;;;;5020730;28;20550;-66
2023/06/26 05:57:42;;;;;;;2.28;2.00;;;19.20;99.90;;;;;;5025604;28;20124;-62
2023/06/26 06:00:10;;;;;;;2.38;1.85;;;19.20;99.90;;;;;;5020979;28;20042;-64
2023/06/26 06:02:42;;;;;;;2.10;1.63;;;19.20;99.90;;;;;;5023601;28;20041;-62
2023/06/26 06:05:10;;;;;;;2.10;1.83;;;19.30;99.90;;;;;;5024094;28;20041;-62
2023/06/26 06:07:37;;;;;;;1.90;1.67;;;19.30;99.90;;;;;;5024192;28;20078;-63
2023/06/26 06:10:04;;;;;;;2.95;2.33;;;19.40;99.90;;;;;;5021136;28;20033;-63
2023/06/26 06:12:31;;;;;;;3.55;1.85;;;19.50;99.90;;;;;;5024078;28;20545;-63
2023/06/26 06:14:58;;;;;;;1.65;1.55;;;19.60;99.90;;;;;;5025966;28;20368;-63
2023/06/26 06:17:25;;;;;;;1.77;1.63;;;19.60;99.90;;;;;;5022942;28;20132;-64
2023/06/26 06:19:52;;;;;;;2.38;1.83;;;19.60;99.90;;;;;;5023542;28;20069;-63
2023/06/26 06:22:19;;;;;;;1.88;1.55;;;19.70;99.90;;;;;;5024911;28;20041;-65
2023/06/26 06:24:48;;;;;;;3.60;2.78;;;19.70;99.90;;;;;;5024033;28;20717;-62
2023/06/26 06:27:15;;;;;;;2.83;2.08;;;19.70;99.90;;;;;;5021420;28;20073;-64
2023/06/26 06:29:42;;;;;;;4.60;2.70;;;19.70;99.90;;;;;;5025331;28;20049;-63
2023/06/26 06:32:09;;;;;;;4.95;2.47;;;19.80;99.90;;;;;;5023738;28;20491;-65
2023/06/26 06:34:36;;;;;;;3.13;2.33;;;19.80;99.90;;;;;;5018246;28;20487;-62
2023/06/26 06:37:03;;;;;;;3.55;2.72;;;19.80;99.90;;;;;;5020785;28;20718;-63
2023/06/26 06:39:30;;;;;;;2.40;2.20;;;19.80;99.90;;;;;;5019742;28;20041;-63
2023/06/26 06:41:57;;;;;;;3.25;2.17;;;19.90;99.90;;;;;;5021426;28;20164;-63
2023/06/26 06:44:24;;;;;;;2.35;2.15;;;19.90;99.90;;;;;;5023242;28;20482;-66
2023/06/26 06:46:51;;;;;;;2.95;2.35;;;19.90;99.90;;;;;;5022399;28;20056;-63
2023/06/26 06:49:18;;;;;;;2.50;1.85;;;19.90;99.90;;;;;;5025761;28;20887;-65
2023/06/26 06:51:45;;;;;;;5.97;2.78;;;20.00;99.90;;;;;;5024162;28;20030;-62
2023/06/26 06:54:12;;;;;;;2.92;1.77;;;20.10;99.90;;;;;;5021869;28;20079;-64
2023/06/26 06:56:39;;;;;;;2.47;2.28;;;20.10;99.90;;;;;;5022098;28;20045;-64
2023/06/26 06:59:06;;;;;;;4.05;1.98;;;20.10;99.90;;;;;;5022228;28;20037;-63
2023/06/26 07:01:33;;;;;;;4.40;2.38;;;20.10;99.90;;;;;;5022673;28;20495;-64
2023/06/26 07:04:00;;;;;;;4.80;2.95;;;20.10;99.90;;;;;;5024163;28;20042;-62
2023/06/26 07:06:27;;;;;;;4.40;2.05;;;20.20;99.90;;;;;;5023488;28;20041;-63
2023/06/26 07:08:54;;;;;;;3.55;2.60;;;20.20;99.90;;;;;;5024913;28;20094;-63
2023/06/26 07:11:21;;;;;;;2.35;2.08;;;20.30;99.90;;;;;;5018265;28;20070;-63
2023/06/26 07:13:48;;;;;;;3.72;2.25;;;20.40;99.90;;;;;;5022708;28;20388;-62
2023/06/26 07:16:14;;;;;;;3.65;2.92;;;20.40;99.90;;;;;;5023741;28;20555;-63
2023/06/26 07:18:43;;;;;;;3.45;2.20;;;20.50;99.90;;;;;;5025205;28;20052;-62
2023/06/26 07:21:10;;;;;;;2.80;2.60;;;20.50;99.90;;;;;;5021749;28;20041;-63
2023/06/26 07:23:37;;;;;;;5.97;2.58;;;20.60;99.90;;;;;;5024062;28;20045;-64
2023/06/26 07:26:04;;;;;;;2.53;2.00;;;20.80;99.90;;;;;;5022152;28;20041;-64
2023/06/26 07:28:31;;;;;;;2.13;1.85;;;20.80;99.90;;;;;;5023682;28;20045;-64
2023/06/26 07:30:58;;;;;;;2.75;1.83;;;20.80;99.90;;;;;;5019915;28;20034;-62
2023/06/26 07:33:25;;;;;;;3.20;2.22;;;20.90;99.90;;;;;;5019846;28;20061;-68
2023/06/26 07:35:52;;;;;;;2.10;1.90;;;20.90;99.90;;;;;;5018466;28;20038;-63
2023/06/26 07:38:19;;;;;;;4.13;2.05;;;20.80;99.90;;;;;;5024312;28;20049;-67
2023/06/26 07:40:46;;;;;;;2.35;2.15;;;20.90;99.90;;;;;;5024130;28;20119;-65
2023/06/26 07:43:12;;;;;;;3.20;2.00;;;20.90;99.90;;;;;;5024505;28;20084;-67
2023/06/26 07:45:39;;;;;;;2.25;2.00;;;20.90;99.90;;;;;;5024580;28;20064;-65
2023/06/26 07:48:07;;;;;;;2.08;1.88;;;20.90;99.90;;;;;;5028555;28;20053;-67
2023/06/26 07:50:34;;;;;;;4.35;2.33;;;20.90;99.90;;;;;;5027018;28;20471;-62
2023/06/26 07:53:02;;;;;;;4.72;2.63;;;21.00;99.90;;;;;;5025162;28;20037;-66
2023/06/26 07:55:29;;;;;;;6.90;2.67;;;21.10;99.90;;;;;;5025089;28;20049;-63
2023/06/26 07:57:55;;;;;;;3.55;2.47;;;21.10;99.90;;;;;;5024366;28;20052;-67
2023/06/26 08:00:22;;;;;;;4.22;2.40;;;21.10;99.90;;;;;;5026180;28;20459;-63
2023/06/26 08:02:52;;;;;;;5.55;2.17;;;21.20;99.90;;;;;;5029207;28;20133;-62
2023/06/26 08:05:19;;;;;;;3.20;2.78;;;21.30;99.90;;;;;;5023578;28;20468;-63
2023/06/26 08:07:47;;;;;;;3.78;2.30;;;21.40;99.90;;;;;;5025621;28;20034;-64
2023/06/26 08:10:14;;;;;;;2.88;1.80;;;21.40;99.90;;;;;;5024404;28;20479;-64
2023/06/26 08:12:42;;;;;;;2.38;1.85;;;21.60;99.90;;;;;;5028120;28;20042;-63
2023/06/26 08:15:09;;;;;;;2.30;1.88;;;21.60;99.90;;;;;;5025643;28;20049;-62
2023/06/26 08:17:37;;;;;;;3.70;2.63;;;21.50;99.90;;;;;;5027997;28;20038;-65
2023/06/26 08:20:05;;;;;;;1.70;1.58;;;21.50;99.90;;;;;;5026212;28;20042;-63
2023/06/26 08:22:32;;;;;;;3.55;3.25;;;21.70;99.90;;;;;;5022713;28;20041;-63
2023/06/26 08:24:59;;;;;;;2.35;1.45;;;21.80;99.90;;;;;;5025521;28;20062;-63
2023/06/26 08:27:26;;;;;;;2.80;2.22;;;21.60;99.90;;;;;;5025865;28;20392;-65
2023/06/26 08:29:52;;;;;;;2.15;1.95;;;21.60;99.90;;;;;;5027540;28;20107;-63
2023/06/26 08:32:19;;;;;;;2.03;1.80;;;21.70;99.90;;;;;;5023251;28;20045;-63
2023/06/26 08:34:46;;;;;;;1.90;1.60;;;21.80;99.90;;;;;;5024323;28;20384;-64
2023/06/26 08:37:15;;;;;;;3.10;1.55;;;21.90;99.90;;;;;;5022128;28;20052;-65
2023/06/26 08:39:42;;;;;;;4.35;2.13;;;21.90;99.90;;;;;;5027855;28;20046;-63
2023/06/26 08:42:09;;;;;;;2.55;1.90;;;21.90;99.90;;;;;;5025888;28;20041;-62
2023/06/26 08:44:35;;;;;;;2.58;1.92;;;22.00;99.60;;;;;;5028494;28;20049;-63
2023/06/26 08:47:14;;;;;;;3.40;2.00;;;22.00;99.90;;;;;;5023260;28;20049;-63
2023/06/26 08:49:59;;;;;;;2.53;2.03;;;22.20;99.90;;;;;;5024183;28;20041;-65
2023/06/26 08:52:34;;;;;;;2.55;2.08;;;22.40;99.90;;;;;;5024356;28;20045;-65
2023/06/26 08:55:06;;;;;;;2.90;2.28;;;22.50;99.90;;;;;;5022910;28;20065;-68
2023/06/26 08:57:33;;;;;;;2.58;2.38;;;22.40;99.90;;;;;;5021584;28;20046;-64
2023/06/26 09:00:01;;;;;;;3.75;2.13;;;22.30;99.90;;;;;;5022749;28;20640;-64
2023/06/26 09:02:28;;;;;;;3.72;2.08;;;22.20;99.90;;;;;;5024268;28;20841;-63
2023/06/26 09:04:56;;;;;;;2.25;2.03;;;22.10;99.90;;;;;;5023536;28;20052;-62
2023/06/26 09:07:22;;;;;;;2.42;1.98;;;22.00;99.90;;;;;;5027364;28;20069;-63
2023/06/26 09:09:49;;;;;;;1.85;1.65;;;22.00;99.90;;;;;;5025857;28;20442;-63
2023/06/26 09:12:16;;;;;;;2.40;2.20;;;22.00;99.90;;;;;;5024357;28;20526;-62
2023/06/26 09:14:43;;;;;;;2.63;1.98;;;22.00;99.90;;;;;;5025917;28;20053;-64
2023/06/26 09:17:12;;;;;;;2.65;2.45;;;21.90;99.90;;;;;;5024815;28;20068;-63
2023/06/26 09:19:39;;;;;;;2.42;1.77;;;21.90;99.90;;;;;;5024445;28;20084;-63
2023/06/26 09:22:13;;;;;;;2.17;1.98;;;22.10;99.90;;;;;;5026174;28;20411;-64
2023/06/26 09:24:42;;;;;;;4.53;3.05;;;22.10;99.90;;;;;;5026800;28;20073;-64
2023/06/26 09:27:09;;;;;;;2.35;2.15;;;22.10;99.90;;;;;;5023404;28;20095;-63
2023/06/26 09:29:37;;;;;;;3.33;1.85;;;22.20;99.90;;;;;;5023710;28;20130;-62
2023/06/26 09:32:04;;;;;;;3.53;2.13;;;22.10;99.90;;;;;;5023819;28;20042;-64
2023/06/26 09:34:32;;;;;;;2.85;1.40;;;22.00;99.90;;;;;;5020390;28;20061;-67
2023/06/26 09:37:02;;;;;;;5.75;2.05;;;22.10;99.90;;;;;;5020765;28;20056;-63
2023/06/26 09:39:32;;;;;;;2.30;2.10;;;22.00;99.90;;;;;;5022025;28;20042;-64
2023/06/26 09:41:59;;;;;;;2.92;2.72;;;22.30;99.90;;;;;;5022247;28;20045;-63
2023/06/26 09:44:26;;;;;;;2.92;2.20;;;22.40;99.90;;;;;;5022245;28;20099;-66
2023/06/26 09:46:55;;;;;;;4.47;2.70;;;22.40;99.90;;;;;;5024001;28;20077;-64
2023/06/26 09:49:24;;;;;;;1.70;1.58;;;22.30;99.90;;;;;;5036144;28;20651;-64
2023/06/26 09:51:51;;;;;;;2.10;1.90;;;22.20;99.90;;;;;;5021556;28;20042;-62
2023/06/26 09:54:18;;;;;;;4.57;2.35;;;22.40;99.90;;;;;;5023243;28;20069;-63
2023/06/26 09:56:45;;;;;;;2.22;1.88;;;22.20;99.90;;;;;;5023303;28;20500;-63
2023/06/26 09:59:13;;;;;;;1.77;1.67;;;22.30;99.90;;;;;;5024653;28;20041;-63
2023/06/26 10:01:41;;;;;;;4.65;2.03;;;22.40;99.90;;;;;;5022771;28;20038;-63
2023/06/26 10:04:08;;;;;;;2.53;1.50;;;22.60;99.90;;;;;;5026093;28;20045;-63
2023/06/26 10:06:45;;;;;;;2.00;1.45;;;22.60;99.90;;;;;;5022842;28;20076;-64
2023/06/26 10:09:16;;;;;;;1.33;1.20;;;22.60;99.90;;;;;;5020040;28;20033;-64
2023/06/26 10:11:51;;;;;;;5.03;2.20;;;22.60;99.90;;;;;;5022244;28;20551;-65
2023/06/26 10:14:20;;;;;;;2.78;1.67;;;22.60;99.90;;;;;;5022464;28;20045;-63
2023/06/26 10:16:49;;;;;;;1.10;1.00;;;22.70;99.90;;;;;;5021492;28;20077;-63
2023/06/26 10:19:23;;;;;;;2.85;1.30;;;22.20;99.90;;;;;;5024508;28;20087;-62
2023/06/26 10:21:52;;;;;;;3.22;1.50;;;22.10;99.90;;;;;;5022505;28;20060;-62
2023/06/26 10:24:22;;;;;;;2.90;1.02;;;22.10;99.90;;;;;;5024342;28;20577;-63
2023/06/26 10:26:52;;;;;;;1.45;0.77;;;22.40;99.90;;;;;;5025084;28;20553;-63
2023/06/26 10:29:22;;;;;;;1.30;1.00;;;22.60;99.90;;;;;;5022031;28;20079;-64
2023/06/26 10:31:52;;;;;;;1.33;1.23;;;22.70;99.90;;;;;;5024490;28;20052;-63
2023/06/26 10:34:20;;;;;;;1.92;1.30;;;22.80;99.90;;;;;;5020543;28;20076;-62
2023/06/26 10:36:48;;;;;;;1.23;1.10;;;22.90;99.90;;;;;;5024082;28;20446;-62
2023/06/26 10:39:14;;;;;;;0.80;0.80;;;22.80;99.90;;;;;;5019076;28;20096;-63
2023/06/26 10:41:42;;;;;;;8.90;1.42;;;22.40;99.90;;;;;;5023871;28;20072;-63
2023/06/26 10:44:41;;;;;;;1.67;1.25;;;22.30;99.90;;;;;;5025205;28;20059;-67
2023/06/26 10:47:09;;;;;;;1.98;1.38;;;22.30;99.90;;;;;;5021980;28;20048;-63
2023/06/26 10:49:39;;;;;;;2.03;1.17;;;22.30;99.90;;;;;;5023456;28;20045;-67
2023/06/26 10:52:06;;;;;;;2.10;1.10;;;22.30;99.90;;;;;;5040882;28;20041;-64
2023/06/26 10:54:33;;;;;;;3.55;1.90;;;22.60;99.90;;;;;;5020369;28;20095;-62
2023/06/26 10:57:02;;;;;;;2.67;1.30;;;22.50;99.90;;;;;;5022958;28;20056;-65
2023/06/26 10:59:30;;;;;;;1.00;0.73;;;22.40;99.90;;;;;;5021655;28;20099;-67
2023/06/26 11:01:58;;;;;;;1.90;1.38;;;22.40;99.90;;;;;;5020820;28;20037;-63
2023/06/26 11:04:46;;;;;;;1.50;1.40;;;22.50;99.90;;;;;;5019038;28;20171;-65
2023/06/26 11:07:20;;;;;;;1.40;1.30;;;22.60;99.90;;;;;;5021959;28;20037;-62
2023/06/26 11:10:01;;;;;;;1.38;1.10;;;22.80;99.90;;;;;;5023852;28;20030;-63
2023/06/26 11:12:41;;;;;;;1.85;1.40;;;22.90;99.90;;;;;;5021607;28;20051;-67
2023/06/26 11:15:09;;;;;;;1.58;1.25;;;23.00;99.90;;;;;;5022906;28;20123;-62
2023/06/26 11:17:37;;;;;;;1.73;1.13;;;22.80;99.90;;;;;;5023147;28;20052;-63
2023/06/26 11:20:09;;;;;;;8.30;4.20;;;22.80;99.90;;;;;;5023790;28;20132;-65
2023/06/26 11:22:38;;;;;;;2.13;1.23;;;22.90;99.90;;;;;;5025669;28;20119;-64
2023/06/26 11:25:06;;;;;;;2.72;1.45;;;22.90;99.90;;;;;;5027630;28;20136;-64
2023/06/26 11:27:43;;;;;;;3.03;1.73;;;23.10;99.90;;;;;;5025304;28;20049;-63
2023/06/26 11:30:22;;;;;;;1.70;1.50;;;23.30;99.90;;;;;;5025535;28;20423;-66
2023/06/26 11:32:49;;;;;;;1.17;0.87;;;23.10;99.90;;;;;;5026463;28;20057;-64
2023/06/26 11:35:32;;;;;;;3.55;1.60;;;23.00;99.90;;;;;;5024238;28;20402;-62
2023/06/26 11:38:04;;;;;;;1.95;1.85;;;23.00;99.90;;;;;;5025958;28;20076;-65
2023/06/26 11:40:36;;;;;;;2.67;1.25;;;23.10;99.90;;;;;;5026542;28;20049;-64
2023/06/26 11:43:03;;;;;;;2.47;1.15;;;23.10;99.90;;;;;;5028276;28;20041;-64
2023/06/26 11:45:31;;;;;;;1.75;1.20;;;23.40;99.90;;;;;;5023788;28;20037;-66
2023/06/26 11:48:00;;;;;;;1.65;1.40;;;23.20;99.90;;;;;;5025312;28;20079;-64
2023/06/26 11:50:28;;;;;;;1.88;1.77;;;22.90;99.90;;;;;;5028382;28;20069;-64
2023/06/26 11:52:59;;;;;;;2.30;1.70;;;23.10;99.90;;;;;;5029682;28;20059;-63
2023/06/26 11:55:40;;;;;;;2.10;1.90;;;23.30;99.90;;;;;;5023163;28;20050;-63
2023/06/26 11:58:07;;;;;;;1.23;1.13;;;23.40;99.90;;;;;;5027920;28;20041;-67
2023/06/26 12:00:33;;;;;;;2.05;1.85;;;23.50;99.90;;;;;;5027954;28;20077;-67
2023/06/26 12:03:02;;;;;;;2.63;1.38;;;23.50;99.90;;;;;;5025588;28;20529;-64
2023/06/26 12:05:30;;;;;;;2.05;1.55;;;23.50;99.90;;;;;;5021744;28;20042;-65
2023/06/26 12:07:59;;;;;;;1.75;1.65;;;23.60;99.90;;;;;;5022587;28;20119;-62
2023/06/26 12:10:27;;;;;;;2.22;1.92;;;23.60;99.90;;;;;;5027449;28;20056;-63
2023/06/26 12:12:58;;;;;;;2.65;2.45;;;23.40;99.90;;;;;;5025118;28;20451;-63
2023/06/26 12:15:25;;;;;;;1.90;1.70;;;23.10;99.90;;;;;;5025155;28;20053;-64
2023/06/26 12:17:52;;;;;;;3.38;1.80;;;23.10;99.90;;;;;;5024126;28;20042;-68
2023/06/26 12:20:21;;;;;;;3.45;1.52;;;23.00;99.80;;;;;;5027224;28;20042;-62
2023/06/26 12:22:49;;;;;;;3.75;1.85;;;23.00;99.90;;;;;;5025062;28;20815;-62
2023/06/26 12:25:22;;;;;;;1.95;1.13;;;23.30;99.90;;;;;;5026637;28;20136;-65
2023/06/26 12:27:49;;;;;;;1.83;1.30;;;23.50;99.90;;;;;;5027558;28;20049;-65
2023/06/26 12:30:16;;;;;;;2.80;1.55;;;23.50;99.90;;;;;;5027450;28;20052;-64
2023/06/26 12:32:46;;;;;;;1.02;0.95;;;23.50;99.00;;;;;;5024433;28;20435;-64
2023/06/26 12:35:15;;;;;;;2.03;1.65;;;23.30;99.30;;;;;;5022389;28;20041;-64
2023/06/26 12:37:44;;;;;;;2.55;1.55;;;23.40;99.90;;;;;;5024522;28;20041;-63
2023/06/26 12:40:23;;;;;;;1.55;1.40;;;23.60;99.90;;;;;;5026634;28;20045;-64
2023/06/26 12:42:50;;;;;;;2.22;1.52;;;23.90;98.90;;;;;;5025911;28;20049;-64
2023/06/26 12:45:17;;;;;;;2.47;1.88;;;24.10;99.30;;;;;;5023715;28;20044;-65
2023/06/26 12:47:48;;;;;;;1.73;1.63;;;24.10;99.80;;;;;;5025644;28;20519;-65
2023/06/26 12:50:16;;;;;;;1.67;1.30;;;24.10;99.70;;;;;;5024178;28;20081;-63
2023/06/26 12:52:43;;;;;;;2.03;1.77;;;24.40;99.10;;;;;;5025686;28;20053;-62
2023/06/26 12:55:10;;;;;;;2.40;1.80;;;24.40;96.90;;;;;;5020389;28;20091;-62